sensor_id;sensor_type;location;lat;lon;timestamp;temperature;humidity
10121;DHT22;5100;45.176;5.714;2022-09-09T00:00:17;23.60;61.70
10121;DHT22;5100;45.176;5.714;2022-09-09T00:02:50;23.60;61.80
10121;DHT22;5100;45.176;5.714;2022-09-09T00:05:32;23.60;61.70
10121;DHT22;5100;45.176;5.714;2022-09-09T00:08:02;23.60;61.10
10121;DHT22;5100;45.176;5.714;2022-09-09T00:10:33;23.50;60.90
10121;DHT22;5100;45.176;5.714;2022-09-09T00:13:19;23.50;60.90
10121;DHT22;5100;45.176;5.714;2022-09-09T00:16:00;23.50;60.90
10121;DHT22;5100;45.176;5.714;2022-09-09T00:18:46;23.50;60.90
10121;DHT22;5100;45.176;5.714;2022-09-09T00:21:17;23.50;60.90
10121;DHT22;5100;45.176;5.714;2022-09-09T00:23:54;23.50;60.80
10121;DHT22;5100;45.176;5.714;2022-09-09T00:31:34;23.50;60.80
10121;DHT22;5100;45.176;5.714;2022-09-09T00:34:18;23.40;60.50
10121;DHT22;5100;45.176;5.714;2022-09-09T00:36:45;23.40;60.20
10121;DHT22;5100;45.176;5.714;2022-09-09T00:39:29;23.40;60.30
10121;DHT22;5100;45.176;5.714;2022-09-09T00:44:37;23.40;60.80
10121;DHT22;5100;45.176;5.714;2022-09-09T00:50:05;23.40;61.10
10121;DHT22;5100;45.176;5.714;2022-09-09T00:55:28;23.40;61.40
10121;DHT22;5100;45.176;5.714;2022-09-09T00:57:58;23.30;61.40
10121;DHT22;5100;45.176;5.714;2022-09-09T01:00:27;23.30;61.60
10121;DHT22;5100;45.176;5.714;2022-09-09T01:05:59;23.30;61.90
10121;DHT22;5100;45.176;5.714;2022-09-09T01:08:55;23.30;62.00
10121;DHT22;5100;45.176;5.714;2022-09-09T01:11:27;23.30;62.00
10121;DHT22;5100;45.176;5.714;2022-09-09T01:17:05;23.30;62.10
10121;DHT22;5100;45.176;5.714;2022-09-09T01:28:16;23.20;62.30
10121;DHT22;5100;45.176;5.714;2022-09-09T01:30:44;23.20;62.40
10121;DHT22;5100;45.176;5.714;2022-09-09T01:33:16;23.20;62.70
10121;DHT22;5100;45.176;5.714;2022-09-09T01:35:54;23.10;62.70
10121;DHT22;5100;45.176;5.714;2022-09-09T01:38:23;23.10;62.70
10121;DHT22;5100;45.176;5.714;2022-09-09T01:40:51;23.10;62.80
10121;DHT22;5100;45.176;5.714;2022-09-09T01:43:20;23.10;62.80
10121;DHT22;5100;45.176;5.714;2022-09-09T01:45:51;23.10;62.90
10121;DHT22;5100;45.176;5.714;2022-09-09T01:48:19;23.10;63.00
10121;DHT22;5100;45.176;5.714;2022-09-09T01:50:47;23.00;63.10
10121;DHT22;5100;45.176;5.714;2022-09-09T01:53:15;23.00;63.10
10121;DHT22;5100;45.176;5.714;2022-09-09T02:04:42;22.90;63.50
10121;DHT22;5100;45.176;5.714;2022-09-09T02:12:32;22.90;63.80
10121;DHT22;5100;45.176;5.714;2022-09-09T02:15:11;22.90;63.90
10121;DHT22;5100;45.176;5.714;2022-09-09T02:17:41;22.90;64.40
10121;DHT22;5100;45.176;5.714;2022-09-09T02:20:12;22.80;65.10
10121;DHT22;5100;45.176;5.714;2022-09-09T02:22:42;22.80;65.60
10121;DHT22;5100;45.176;5.714;2022-09-09T02:25:13;22.80;65.90
10121;DHT22;5100;45.176;5.714;2022-09-09T02:27:44;22.80;66.00
10121;DHT22;5100;45.176;5.714;2022-09-09T02:30:11;22.80;66.00
10121;DHT22;5100;45.176;5.714;2022-09-09T02:32:39;22.80;65.80
10121;DHT22;5100;45.176;5.714;2022-09-09T02:35:14;22.70;65.60
10121;DHT22;5100;45.176;5.714;2022-09-09T02:37:42;22.70;65.60
10121;DHT22;5100;45.176;5.714;2022-09-09T02:40:13;22.70;66.30
10121;DHT22;5100;45.176;5.714;2022-09-09T02:42:44;22.70;66.80
10121;DHT22;5100;45.176;5.714;2022-09-09T02:45:24;22.70;66.70
10121;DHT22;5100;45.176;5.714;2022-09-09T02:48:14;22.70;66.50
10121;DHT22;5100;45.176;5.714;2022-09-09T02:54:28;22.60;66.30
10121;DHT22;5100;45.176;5.714;2022-09-09T02:56:40;22.60;66.30
10121;DHT22;5100;45.176;5.714;2022-09-09T02:59:09;22.60;66.00
10121;DHT22;5100;45.176;5.714;2022-09-09T03:01:36;22.50;66.10
10121;DHT22;5100;45.176;5.714;2022-09-09T03:04:03;22.50;66.00
10121;DHT22;5100;45.176;5.714;2022-09-09T03:06:31;22.50;65.90
10121;DHT22;5100;45.176;5.714;2022-09-09T03:08:59;22.50;65.80
10121;DHT22;5100;45.176;5.714;2022-09-09T03:11:28;22.50;65.80
10121;DHT22;5100;45.176;5.714;2022-09-09T03:13:54;22.50;65.80
10121;DHT22;5100;45.176;5.714;2022-09-09T03:16:23;22.40;65.80
10121;DHT22;5100;45.176;5.714;2022-09-09T03:18:50;22.40;65.90
10121;DHT22;5100;45.176;5.714;2022-09-09T03:21:16;22.40;66.00
10121;DHT22;5100;45.176;5.714;2022-09-09T03:23:43;22.40;66.00
10121;DHT22;5100;45.176;5.714;2022-09-09T03:26:10;22.40;65.90
10121;DHT22;5100;45.176;5.714;2022-09-09T03:28:37;22.30;66.10
10121;DHT22;5100;45.176;5.714;2022-09-09T03:31:05;22.30;66.30
10121;DHT22;5100;45.176;5.714;2022-09-09T03:33:32;22.30;66.20
10121;DHT22;5100;45.176;5.714;2022-09-09T03:35:58;22.30;66.10
10121;DHT22;5100;45.176;5.714;2022-09-09T03:38:25;22.30;66.10
10121;DHT22;5100;45.176;5.714;2022-09-09T03:40:55;22.30;66.10
10121;DHT22;5100;45.176;5.714;2022-09-09T03:43:22;22.30;66.00
10121;DHT22;5100;45.176;5.714;2022-09-09T03:45:50;22.30;65.90
10121;DHT22;5100;45.176;5.714;2022-09-09T03:48:18;22.20;65.90
10121;DHT22;5100;45.176;5.714;2022-09-09T03:50:52;22.20;65.80
10121;DHT22;5100;45.176;5.714;2022-09-09T03:53:21;22.20;65.60
10121;DHT22;5100;45.176;5.714;2022-09-09T03:55:50;22.20;65.60
10121;DHT22;5100;45.176;5.714;2022-09-09T03:58:19;22.20;65.50
10121;DHT22;5100;45.176;5.714;2022-09-09T04:03:25;22.10;65.50
10121;DHT22;5100;45.176;5.714;2022-09-09T04:05:52;22.10;65.60
10121;DHT22;5100;45.176;5.714;2022-09-09T04:08:20;22.10;65.50
10121;DHT22;5100;45.176;5.714;2022-09-09T04:10:49;22.10;65.70
10121;DHT22;5100;45.176;5.714;2022-09-09T04:13:17;22.00;65.60
10121;DHT22;5100;45.176;5.714;2022-09-09T04:15:54;22.00;65.50
10121;DHT22;5100;45.176;5.714;2022-09-09T04:18:22;22.00;65.60
10121;DHT22;5100;45.176;5.714;2022-09-09T04:20:49;22.00;65.60
10121;DHT22;5100;45.176;5.714;2022-09-09T04:23:17;22.00;65.70
10121;DHT22;5100;45.176;5.714;2022-09-09T04:25:47;22.00;65.70
10121;DHT22;5100;45.176;5.714;2022-09-09T04:28:15;22.00;65.70
10121;DHT22;5100;45.176;5.714;2022-09-09T04:30:42;21.90;65.60
10121;DHT22;5100;45.176;5.714;2022-09-09T04:33:10;21.90;65.50
10121;DHT22;5100;45.176;5.714;2022-09-09T04:35:37;21.90;65.50
10121;DHT22;5100;45.176;5.714;2022-09-09T04:38:04;21.90;65.60
10121;DHT22;5100;45.176;5.714;2022-09-09T04:40:31;21.90;65.60
10121;DHT22;5100;45.176;5.714;2022-09-09T04:42:58;21.90;65.60
10121;DHT22;5100;45.176;5.714;2022-09-09T04:45:25;21.80;65.60
10121;DHT22;5100;45.176;5.714;2022-09-09T04:47:53;21.80;65.60
10121;DHT22;5100;45.176;5.714;2022-09-09T04:50:19;21.80;65.60
10121;DHT22;5100;45.176;5.714;2022-09-09T04:52:46;21.80;65.60
10121;DHT22;5100;45.176;5.714;2022-09-09T04:55:12;21.80;65.60
10121;DHT22;5100;45.176;5.714;2022-09-09T04:57:40;21.80;65.70
10121;DHT22;5100;45.176;5.714;2022-09-09T05:00:08;21.70;65.70
10121;DHT22;5100;45.176;5.714;2022-09-09T05:02:37;21.70;65.70
10121;DHT22;5100;45.176;5.714;2022-09-09T05:05:05;21.70;65.90
10121;DHT22;5100;45.176;5.714;2022-09-09T05:07:31;21.70;66.00
10121;DHT22;5100;45.176;5.714;2022-09-09T05:09:58;21.70;66.00
10121;DHT22;5100;45.176;5.714;2022-09-09T05:12:25;21.70;65.90
10121;DHT22;5100;45.176;5.714;2022-09-09T05:14:52;21.70;65.80
10121;DHT22;5100;45.176;5.714;2022-09-09T05:17:19;21.60;65.80
10121;DHT22;5100;45.176;5.714;2022-09-09T05:19:45;21.60;66.10
10121;DHT22;5100;45.176;5.714;2022-09-09T05:22:11;21.60;66.10
10121;DHT22;5100;45.176;5.714;2022-09-09T05:24:40;21.60;66.00
10121;DHT22;5100;45.176;5.714;2022-09-09T05:27:07;21.60;66.20
10121;DHT22;5100;45.176;5.714;2022-09-09T05:29:33;21.60;66.10
10121;DHT22;5100;45.176;5.714;2022-09-09T05:32:00;21.60;66.10
10121;DHT22;5100;45.176;5.714;2022-09-09T05:34:26;21.60;66.10
10121;DHT22;5100;45.176;5.714;2022-09-09T05:36:52;21.60;66.10
10121;DHT22;5100;45.176;5.714;2022-09-09T05:39:20;21.60;65.80
10121;DHT22;5100;45.176;5.714;2022-09-09T05:41:46;21.60;66.00
10121;DHT22;5100;45.176;5.714;2022-09-09T05:44:12;21.60;65.80
10121;DHT22;5100;45.176;5.714;2022-09-09T05:46:39;21.60;65.50
10121;DHT22;5100;45.176;5.714;2022-09-09T05:49:05;21.60;65.50
10121;DHT22;5100;45.176;5.714;2022-09-09T05:51:32;21.60;65.60
10121;DHT22;5100;45.176;5.714;2022-09-09T05:53:58;21.60;65.60
10121;DHT22;5100;45.176;5.714;2022-09-09T05:56:27;21.60;65.60
10121;DHT22;5100;45.176;5.714;2022-09-09T05:58:56;21.60;65.60
10121;DHT22;5100;45.176;5.714;2022-09-09T06:01:32;21.60;65.90
10121;DHT22;5100;45.176;5.714;2022-09-09T06:03:59;21.60;65.90
10121;DHT22;5100;45.176;5.714;2022-09-09T06:06:27;21.60;65.90
10121;DHT22;5100;45.176;5.714;2022-09-09T06:08:55;21.60;66.00
10121;DHT22;5100;45.176;5.714;2022-09-09T06:11:27;21.70;65.90
10121;DHT22;5100;45.176;5.714;2022-09-09T06:13:53;21.70;65.80
10121;DHT22;5100;45.176;5.714;2022-09-09T06:16:22;21.70;65.80
10121;DHT22;5100;45.176;5.714;2022-09-09T06:18:50;21.70;65.90
10121;DHT22;5100;45.176;5.714;2022-09-09T06:21:26;21.70;65.90
10121;DHT22;5100;45.176;5.714;2022-09-09T06:23:52;21.80;66.00
10121;DHT22;5100;45.176;5.714;2022-09-09T06:26:21;21.80;65.80
10121;DHT22;5100;45.176;5.714;2022-09-09T06:28:49;21.80;65.60
10121;DHT22;5100;45.176;5.714;2022-09-09T06:31:18;21.90;65.40
10121;DHT22;5100;45.176;5.714;2022-09-09T06:33:51;21.90;65.10
10121;DHT22;5100;45.176;5.714;2022-09-09T06:36:23;22.00;64.90
10121;DHT22;5100;45.176;5.714;2022-09-09T06:38:49;22.00;64.60
10121;DHT22;5100;45.176;5.714;2022-09-09T06:41:18;22.10;64.70
10121;DHT22;5100;45.176;5.714;2022-09-09T06:43:46;22.10;64.50
10121;DHT22;5100;45.176;5.714;2022-09-09T06:46:17;22.20;64.20
10121;DHT22;5100;45.176;5.714;2022-09-09T06:48:45;22.20;64.30
10121;DHT22;5100;45.176;5.714;2022-09-09T06:51:14;22.30;64.30
10121;DHT22;5100;45.176;5.714;2022-09-09T06:53:43;22.30;64.20
10121;DHT22;5100;45.176;5.714;2022-09-09T06:58:39;22.40;64.00
10121;DHT22;5100;45.176;5.714;2022-09-09T07:01:32;22.40;64.10
10121;DHT22;5100;45.176;5.714;2022-09-09T07:03:59;22.50;64.10
10121;DHT22;5100;45.176;5.714;2022-09-09T07:06:31;22.50;63.90
10121;DHT22;5100;45.176;5.714;2022-09-09T07:09:11;22.50;63.90
10121;DHT22;5100;45.176;5.714;2022-09-09T07:11:49;22.50;64.00
10121;DHT22;5100;45.176;5.714;2022-09-09T07:14:19;22.60;64.00
10121;DHT22;5100;45.176;5.714;2022-09-09T07:16:46;22.60;63.80
10121;DHT22;5100;45.176;5.714;2022-09-09T07:19:14;22.60;63.70
10121;DHT22;5100;45.176;5.714;2022-09-09T07:21:41;22.60;63.50
10121;DHT22;5100;45.176;5.714;2022-09-09T07:24:09;22.60;63.70
10121;DHT22;5100;45.176;5.714;2022-09-09T07:26:37;22.60;63.60
10121;DHT22;5100;45.176;5.714;2022-09-09T07:29:04;22.70;63.50
10121;DHT22;5100;45.176;5.714;2022-09-09T07:31:33;22.70;63.40
10121;DHT22;5100;45.176;5.714;2022-09-09T07:34:01;22.70;63.20
10121;DHT22;5100;45.176;5.714;2022-09-09T07:36:31;22.70;63.30
10121;DHT22;5100;45.176;5.714;2022-09-09T07:39:00;22.70;63.30
10121;DHT22;5100;45.176;5.714;2022-09-09T07:41:42;22.70;63.20
10121;DHT22;5100;45.176;5.714;2022-09-09T07:44:17;22.80;63.10
10121;DHT22;5100;45.176;5.714;2022-09-09T07:46:45;22.80;63.20
10121;DHT22;5100;45.176;5.714;2022-09-09T07:49:15;22.80;63.30
10121;DHT22;5100;45.176;5.714;2022-09-09T07:51:43;22.80;62.90
10121;DHT22;5100;45.176;5.714;2022-09-09T07:54:13;22.90;62.70
10121;DHT22;5100;45.176;5.714;2022-09-09T07:56:41;22.90;62.80
10121;DHT22;5100;45.176;5.714;2022-09-09T07:59:09;22.90;62.80
10121;DHT22;5100;45.176;5.714;2022-09-09T08:01:42;22.90;62.80
10121;DHT22;5100;45.176;5.714;2022-09-09T08:04:12;23.00;62.50
10121;DHT22;5100;45.176;5.714;2022-09-09T08:06:45;23.00;62.50
10121;DHT22;5100;45.176;5.714;2022-09-09T08:09:13;23.00;62.20
10121;DHT22;5100;45.176;5.714;2022-09-09T08:11:41;23.00;62.20
10121;DHT22;5100;45.176;5.714;2022-09-09T08:14:08;23.10;62.20
10121;DHT22;5100;45.176;5.714;2022-09-09T08:16:39;23.10;61.70
10121;DHT22;5100;45.176;5.714;2022-09-09T08:19:06;23.10;61.80
10121;DHT22;5100;45.176;5.714;2022-09-09T08:21:35;23.20;61.60
10121;DHT22;5100;45.176;5.714;2022-09-09T08:24:03;23.20;61.60
10121;DHT22;5100;45.176;5.714;2022-09-09T08:26:33;23.20;61.40
10121;DHT22;5100;45.176;5.714;2022-09-09T08:29:02;23.30;60.90
10121;DHT22;5100;45.176;5.714;2022-09-09T08:31:38;23.30;61.00
10121;DHT22;5100;45.176;5.714;2022-09-09T08:34:06;23.30;61.30
10121;DHT22;5100;45.176;5.714;2022-09-09T08:36:36;23.40;61.40
10121;DHT22;5100;45.176;5.714;2022-09-09T08:39:04;23.40;60.90
10121;DHT22;5100;45.176;5.714;2022-09-09T08:48:05;23.50;60.50
10121;DHT22;5100;45.176;5.714;2022-09-09T08:50:36;23.50;60.30
10121;DHT22;5100;45.176;5.714;2022-09-09T08:56:00;23.50;60.70
10121;DHT22;5100;45.176;5.714;2022-09-09T08:58:34;23.60;60.70
10121;DHT22;5100;45.176;5.714;2022-09-09T09:11:53;23.70;59.40
10121;DHT22;5100;45.176;5.714;2022-09-09T09:14:23;23.70;59.50
10121;DHT22;5100;45.176;5.714;2022-09-09T09:17:02;23.70;59.50
10121;DHT22;5100;45.176;5.714;2022-09-09T09:19:34;23.70;57.80
10121;DHT22;5100;45.176;5.714;2022-09-09T09:22:20;23.70;56.50
10121;DHT22;5100;45.176;5.714;2022-09-09T09:24:54;23.80;54.80
10121;DHT22;5100;45.176;5.714;2022-09-09T09:27:33;23.80;54.40
10121;DHT22;5100;45.176;5.714;2022-09-09T09:30:12;23.80;53.80
10121;DHT22;5100;45.176;5.714;2022-09-09T09:32:45;23.80;54.20
10121;DHT22;5100;45.176;5.714;2022-09-09T09:35:14;23.80;53.50
10121;DHT22;5100;45.176;5.714;2022-09-09T09:37:41;23.80;53.50
10121;DHT22;5100;45.176;5.714;2022-09-09T09:40:18;23.90;53.30
10121;DHT22;5100;45.176;5.714;2022-09-09T09:43:03;23.90;53.10
10121;DHT22;5100;45.176;5.714;2022-09-09T09:45:35;23.90;53.40
10121;DHT22;5100;45.176;5.714;2022-09-09T09:48:14;23.90;53.30
10121;DHT22;5100;45.176;5.714;2022-09-09T09:53:21;24.00;53.10
10121;DHT22;5100;45.176;5.714;2022-09-09T09:55:55;24.00;53.10
10121;DHT22;5100;45.176;5.714;2022-09-09T09:58:23;24.00;53.20
10121;DHT22;5100;45.176;5.714;2022-09-09T10:00:52;24.00;53.30
10121;DHT22;5100;45.176;5.714;2022-09-09T10:05:55;24.10;52.90
10121;DHT22;5100;45.176;5.714;2022-09-09T10:08:23;24.10;52.90
10121;DHT22;5100;45.176;5.714;2022-09-09T10:17:16;24.10;52.90
10121;DHT22;5100;45.176;5.714;2022-09-09T10:22:38;24.20;53.00
10121;DHT22;5100;45.176;5.714;2022-09-09T10:30:42;24.30;53.00
10121;DHT22;5100;45.176;5.714;2022-09-09T10:38:46;24.30;53.50
10121;DHT22;5100;45.176;5.714;2022-09-09T10:47:17;24.30;53.80
10121;DHT22;5100;45.176;5.714;2022-09-09T10:55:39;24.40;53.70
10121;DHT22;5100;45.176;5.714;2022-09-09T10:58:12;24.40;53.40
10121;DHT22;5100;45.176;5.714;2022-09-09T11:00:45;24.40;53.30
10121;DHT22;5100;45.176;5.714;2022-09-09T11:03:27;24.40;53.30
10121;DHT22;5100;45.176;5.714;2022-09-09T11:08:28;24.40;53.00
10121;DHT22;5100;45.176;5.714;2022-09-09T11:13:57;24.50;53.10
10121;DHT22;5100;45.176;5.714;2022-09-09T11:16:31;24.50;53.00
10121;DHT22;5100;45.176;5.714;2022-09-09T11:19:11;24.50;53.00
10121;DHT22;5100;45.176;5.714;2022-09-09T11:21:48;24.60;52.40
10121;DHT22;5100;45.176;5.714;2022-09-09T11:24:23;24.60;52.10
10121;DHT22;5100;45.176;5.714;2022-09-09T11:26:55;24.60;52.40
10121;DHT22;5100;45.176;5.714;2022-09-09T11:29:43;24.60;52.20
10121;DHT22;5100;45.176;5.714;2022-09-09T11:38:27;24.60;52.70
10121;DHT22;5100;45.176;5.714;2022-09-09T11:41:03;24.70;52.80
10121;DHT22;5100;45.176;5.714;2022-09-09T11:43:37;24.70;52.80
10121;DHT22;5100;45.176;5.714;2022-09-09T11:46:06;24.70;52.90
10121;DHT22;5100;45.176;5.714;2022-09-09T11:48:42;24.70;52.90
10121;DHT22;5100;45.176;5.714;2022-09-09T11:54:00;24.80;52.80
10121;DHT22;5100;45.176;5.714;2022-09-09T11:59:20;24.80;52.40
10121;DHT22;5100;45.176;5.714;2022-09-09T12:02:47;24.80;52.50
10121;DHT22;5100;45.176;5.714;2022-09-09T12:04:54;24.80;52.50
10121;DHT22;5100;45.176;5.714;2022-09-09T12:07:26;24.80;52.50
10121;DHT22;5100;45.176;5.714;2022-09-09T12:09:59;24.90;52.10
10121;DHT22;5100;45.176;5.714;2022-09-09T12:12:37;24.90;51.80
10121;DHT22;5100;45.176;5.714;2022-09-09T12:20:23;24.90;51.30
10121;DHT22;5100;45.176;5.714;2022-09-09T12:28:36;25.00;50.30
10121;DHT22;5100;45.176;5.714;2022-09-09T12:31:10;25.00;49.50
10121;DHT22;5100;45.176;5.714;2022-09-09T12:33:44;25.00;49.20
10121;DHT22;5100;45.176;5.714;2022-09-09T12:36:19;25.00;49.50
10121;DHT22;5100;45.176;5.714;2022-09-09T12:38:47;25.10;48.80
10121;DHT22;5100;45.176;5.714;2022-09-09T12:41:22;25.10;48.90
10121;DHT22;5100;45.176;5.714;2022-09-09T12:43:49;25.10;48.70
10121;DHT22;5100;45.176;5.714;2022-09-09T12:46:36;25.10;49.20
10121;DHT22;5100;45.176;5.714;2022-09-09T12:49:04;25.10;48.20
10121;DHT22;5100;45.176;5.714;2022-09-09T12:51:32;25.10;48.20
10121;DHT22;5100;45.176;5.714;2022-09-09T12:53:59;25.20;47.90
10121;DHT22;5100;45.176;5.714;2022-09-09T12:56:31;25.20;47.70
10121;DHT22;5100;45.176;5.714;2022-09-09T12:58:58;25.20;47.30
10121;DHT22;5100;45.176;5.714;2022-09-09T13:01:31;25.20;46.90
10121;DHT22;5100;45.176;5.714;2022-09-09T13:03:58;25.20;46.60
10121;DHT22;5100;45.176;5.714;2022-09-09T13:06:27;25.20;46.90
10121;DHT22;5100;45.176;5.714;2022-09-09T13:08:54;25.20;46.70
10121;DHT22;5100;45.176;5.714;2022-09-09T13:11:25;25.20;46.60
10121;DHT22;5100;45.176;5.714;2022-09-09T13:13:54;25.30;46.40
10121;DHT22;5100;45.176;5.714;2022-09-09T13:16:30;25.30;45.80
10121;DHT22;5100;45.176;5.714;2022-09-09T13:19:02;25.30;46.40
10121;DHT22;5100;45.176;5.714;2022-09-09T13:21:37;25.30;46.50
10121;DHT22;5100;45.176;5.714;2022-09-09T13:24:06;25.30;46.60
10121;DHT22;5100;45.176;5.714;2022-09-09T13:26:34;25.30;46.50
10121;DHT22;5100;45.176;5.714;2022-09-09T13:29:19;25.30;46.20
10121;DHT22;5100;45.176;5.714;2022-09-09T13:31:45;25.30;46.10
10121;DHT22;5100;45.176;5.714;2022-09-09T13:34:26;25.40;46.10
10121;DHT22;5100;45.176;5.714;2022-09-09T13:37:33;25.40;46.20
10121;DHT22;5100;45.176;5.714;2022-09-09T13:39:59;25.40;46.10
10121;DHT22;5100;45.176;5.714;2022-09-09T13:42:32;25.40;45.90
10121;DHT22;5100;45.176;5.714;2022-09-09T13:45:00;25.40;45.70
10121;DHT22;5100;45.176;5.714;2022-09-09T13:47:34;25.40;45.70
10121;DHT22;5100;45.176;5.714;2022-09-09T13:50:21;25.50;46.00
10121;DHT22;5100;45.176;5.714;2022-09-09T13:52:58;25.50;45.60
10121;DHT22;5100;45.176;5.714;2022-09-09T13:55:27;25.50;45.60
10121;DHT22;5100;45.176;5.714;2022-09-09T13:57:55;25.50;45.60
10121;DHT22;5100;45.176;5.714;2022-09-09T14:00:22;25.50;45.40
10121;DHT22;5100;45.176;5.714;2022-09-09T14:02:51;25.50;45.60
10121;DHT22;5100;45.176;5.714;2022-09-09T14:05:20;25.50;45.50
10121;DHT22;5100;45.176;5.714;2022-09-09T14:07:48;25.50;45.50
10121;DHT22;5100;45.176;5.714;2022-09-09T14:10:15;25.50;45.10
10121;DHT22;5100;45.176;5.714;2022-09-09T14:12:41;25.50;44.80
10121;DHT22;5100;45.176;5.714;2022-09-09T14:15:09;25.60;44.80
10121;DHT22;5100;45.176;5.714;2022-09-09T14:17:36;25.60;44.60
10121;DHT22;5100;45.176;5.714;2022-09-09T14:20:06;25.60;44.20
10121;DHT22;5100;45.176;5.714;2022-09-09T14:22:33;25.60;43.60
10121;DHT22;5100;45.176;5.714;2022-09-09T14:24:59;25.60;43.80
10121;DHT22;5100;45.176;5.714;2022-09-09T14:27:25;25.60;44.00
10121;DHT22;5100;45.176;5.714;2022-09-09T14:29:52;25.60;43.50
10121;DHT22;5100;45.176;5.714;2022-09-09T14:32:18;25.60;43.30
10121;DHT22;5100;45.176;5.714;2022-09-09T14:34:45;25.60;42.30
10121;DHT22;5100;45.176;5.714;2022-09-09T14:37:11;25.60;42.10
10121;DHT22;5100;45.176;5.714;2022-09-09T14:39:37;25.60;42.70
10121;DHT22;5100;45.176;5.714;2022-09-09T14:42:03;25.60;42.60
10121;DHT22;5100;45.176;5.714;2022-09-09T14:44:30;25.60;42.20
10121;DHT22;5100;45.176;5.714;2022-09-09T14:46:56;25.60;42.20
10121;DHT22;5100;45.176;5.714;2022-09-09T14:49:22;25.60;41.60
10121;DHT22;5100;45.176;5.714;2022-09-09T14:51:48;25.60;41.60
10121;DHT22;5100;45.176;5.714;2022-09-09T14:54:14;25.60;41.50
10121;DHT22;5100;45.176;5.714;2022-09-09T14:56:40;25.60;41.40
10121;DHT22;5100;45.176;5.714;2022-09-09T14:59:06;25.60;41.40
10121;DHT22;5100;45.176;5.714;2022-09-09T15:01:32;25.60;41.20
10121;DHT22;5100;45.176;5.714;2022-09-09T15:04:01;25.60;41.20
10121;DHT22;5100;45.176;5.714;2022-09-09T15:06:30;25.60;41.10
10121;DHT22;5100;45.176;5.714;2022-09-09T15:08:56;25.60;41.00
10121;DHT22;5100;45.176;5.714;2022-09-09T15:11:27;25.60;41.00
10121;DHT22;5100;45.176;5.714;2022-09-09T15:13:56;25.60;40.80
10121;DHT22;5100;45.176;5.714;2022-09-09T15:16:26;25.70;40.90
10121;DHT22;5100;45.176;5.714;2022-09-09T15:18:54;25.70;41.00
10121;DHT22;5100;45.176;5.714;2022-09-09T15:21:22;25.70;40.80
10121;DHT22;5100;45.176;5.714;2022-09-09T15:23:49;25.70;40.80
10121;DHT22;5100;45.176;5.714;2022-09-09T15:26:15;25.70;41.10
10121;DHT22;5100;45.176;5.714;2022-09-09T15:28:44;25.70;41.30
10121;DHT22;5100;45.176;5.714;2022-09-09T15:31:25;25.80;41.30
10121;DHT22;5100;45.176;5.714;2022-09-09T15:33:56;25.80;41.20
10121;DHT22;5100;45.176;5.714;2022-09-09T15:36:31;25.80;41.10
10121;DHT22;5100;45.176;5.714;2022-09-09T15:39:01;25.80;41.30
10121;DHT22;5100;45.176;5.714;2022-09-09T15:41:28;25.80;41.60
10121;DHT22;5100;45.176;5.714;2022-09-09T15:43:55;25.80;41.60
10121;DHT22;5100;45.176;5.714;2022-09-09T15:46:40;25.80;41.70
10121;DHT22;5100;45.176;5.714;2022-09-09T15:49:16;25.80;41.20
10121;DHT22;5100;45.176;5.714;2022-09-09T15:51:47;25.80;41.20
10121;DHT22;5100;45.176;5.714;2022-09-09T15:54:17;25.80;41.40
10121;DHT22;5100;45.176;5.714;2022-09-09T15:56:45;25.80;41.50
10121;DHT22;5100;45.176;5.714;2022-09-09T15:59:12;25.80;41.60
10121;DHT22;5100;45.176;5.714;2022-09-09T16:01:39;25.80;41.70
10121;DHT22;5100;45.176;5.714;2022-09-09T16:04:05;25.80;42.00
10121;DHT22;5100;45.176;5.714;2022-09-09T16:06:32;25.90;42.10
10121;DHT22;5100;45.176;5.714;2022-09-09T16:08:59;25.90;41.90
10121;DHT22;5100;45.176;5.714;2022-09-09T16:11:30;25.90;42.10
10121;DHT22;5100;45.176;5.714;2022-09-09T16:13:58;25.90;42.20
10121;DHT22;5100;45.176;5.714;2022-09-09T16:16:27;25.90;42.30
10121;DHT22;5100;45.176;5.714;2022-09-09T16:18:56;25.90;42.20
10121;DHT22;5100;45.176;5.714;2022-09-09T16:21:28;25.90;42.20
10121;DHT22;5100;45.176;5.714;2022-09-09T16:23:59;25.90;42.30
10121;DHT22;5100;45.176;5.714;2022-09-09T16:26:26;25.90;42.50
10121;DHT22;5100;45.176;5.714;2022-09-09T16:28:53;25.80;42.70
10121;DHT22;5100;45.176;5.714;2022-09-09T16:31:23;25.80;42.70
10121;DHT22;5100;45.176;5.714;2022-09-09T16:33:49;25.80;42.80
10121;DHT22;5100;45.176;5.714;2022-09-09T16:36:22;25.80;42.90
10121;DHT22;5100;45.176;5.714;2022-09-09T16:38:55;25.80;43.00
10121;DHT22;5100;45.176;5.714;2022-09-09T16:41:24;25.70;43.40
10121;DHT22;5100;45.176;5.714;2022-09-09T16:43:55;25.70;43.80
10121;DHT22;5100;45.176;5.714;2022-09-09T16:46:22;25.70;44.00
10121;DHT22;5100;45.176;5.714;2022-09-09T16:48:50;25.70;44.10
10121;DHT22;5100;45.176;5.714;2022-09-09T16:51:19;25.70;44.00
10121;DHT22;5100;45.176;5.714;2022-09-09T16:53:46;25.70;44.00
10121;DHT22;5100;45.176;5.714;2022-09-09T16:56:15;25.70;44.10
10121;DHT22;5100;45.176;5.714;2022-09-09T16:58:43;25.60;44.00
10121;DHT22;5100;45.176;5.714;2022-09-09T17:01:10;25.60;44.00
10121;DHT22;5100;45.176;5.714;2022-09-09T17:03:40;25.60;44.10
10121;DHT22;5100;45.176;5.714;2022-09-09T17:06:14;25.60;44.20
10121;DHT22;5100;45.176;5.714;2022-09-09T17:08:41;25.60;44.20
10121;DHT22;5100;45.176;5.714;2022-09-09T17:11:15;25.60;44.20
10121;DHT22;5100;45.176;5.714;2022-09-09T17:13:42;25.60;44.30
10121;DHT22;5100;45.176;5.714;2022-09-09T17:16:09;25.50;44.60
10121;DHT22;5100;45.176;5.714;2022-09-09T17:18:36;25.50;44.80
10121;DHT22;5100;45.176;5.714;2022-09-09T17:21:07;25.50;44.80
10121;DHT22;5100;45.176;5.714;2022-09-09T17:23:35;25.50;44.80
10121;DHT22;5100;45.176;5.714;2022-09-09T17:26:08;25.50;45.00
10121;DHT22;5100;45.176;5.714;2022-09-09T17:28:36;25.40;45.30
10121;DHT22;5100;45.176;5.714;2022-09-09T17:31:03;25.40;45.30
10121;DHT22;5100;45.176;5.714;2022-09-09T17:33:31;25.40;45.50
10121;DHT22;5100;45.176;5.714;2022-09-09T17:36:15;25.40;45.60
10121;DHT22;5100;45.176;5.714;2022-09-09T17:38:42;25.40;45.70
10121;DHT22;5100;45.176;5.714;2022-09-09T17:41:18;25.30;45.90
10121;DHT22;5100;45.176;5.714;2022-09-09T17:43:45;25.30;46.00
10121;DHT22;5100;45.176;5.714;2022-09-09T17:46:20;25.30;46.10
10121;DHT22;5100;45.176;5.714;2022-09-09T17:48:48;25.30;46.30
10121;DHT22;5100;45.176;5.714;2022-09-09T17:51:18;25.30;46.50
10121;DHT22;5100;45.176;5.714;2022-09-09T17:53:51;25.30;46.70
10121;DHT22;5100;45.176;5.714;2022-09-09T17:56:20;25.20;46.90
10121;DHT22;5100;45.176;5.714;2022-09-09T17:58:47;25.20;46.90
10121;DHT22;5100;45.176;5.714;2022-09-09T18:01:19;25.20;47.10
10121;DHT22;5100;45.176;5.714;2022-09-09T18:03:46;25.20;47.20
10121;DHT22;5100;45.176;5.714;2022-09-09T18:06:19;25.20;47.40
10121;DHT22;5100;45.176;5.714;2022-09-09T18:08:54;25.20;47.50
10121;DHT22;5100;45.176;5.714;2022-09-09T18:11:22;25.10;47.70
10121;DHT22;5100;45.176;5.714;2022-09-09T18:13:50;25.10;47.70
10121;DHT22;5100;45.176;5.714;2022-09-09T18:16:16;25.10;47.90
10121;DHT22;5100;45.176;5.714;2022-09-09T18:18:50;25.10;48.10
10121;DHT22;5100;45.176;5.714;2022-09-09T18:21:17;25.00;48.20